KILMKSUT

Guest
Details From KILM - Wilmington Intl
To KSUT - Brunswick Co
Flight Number -
Tags Generated
Created
Modified
Stats Distance 23 nm / 43 km
Max Altitude 0 ft / 0 m
Waypoints 2
Social Downloads 2
Likes 0
Share VATSIM

Download

Looking for another format? Having issues loading an existing format? Contact us
Advertisement - Login to hide

Notes

Generated

Route

KILM KSUT

ID Type Via Altitude Latitude Longitude Leg Dist Tot Dist Heading (true) Name
O KILM APT - 0 ft / 0 m 34.28120˚ -77.90914˚ - 0 nm - -
O KSUT APT - 0 ft / 0 m 33.92511˚ -78.07932˚ 22 nm 22 nm 202° / 202° -

Altitude Profile

Advertisement - Login to hide

KILM

Details ICAO KILM (ILM)
Name Wilmington Intl
Region United States
Timezone America/New_York (UTC-5.0)
Stats Elevation 32 ft / 10 m (AMSL)
Location 34.270704° -77.902714°
Runways 2
Magnetic Variation 9.437° W

METAR

KILM 131253Z AUTO 31005KT 10SM CLR M01/M08 A3000 RMK AO2 SLP158 T10061083

Decode

TAF

TAF KILM 131120Z 1312/1412 31010KT P6SM SKC TEMPO 1313/1316 30013G19KT FM132100 23007KT P6SM SKC FM140500 23010G19KT P6SM FEW120 SCT250

Decode

Departure Runways

ID Width Length Bearing (true) Bearing (mag) Surface Threshold Offset Overrun Length
06 200 ft / 61 m 8,017 ft / 2,444 m 48.22° 57.66° Concrete 0 ft / 0 m 931 ft / 284 m
17 150 ft / 46 m 7,018 ft / 2,139 m 159.31° 168.75° Asphalt 0 ft / 0 m 1,000 ft / 305 m
24 200 ft / 61 m 8,017 ft / 2,444 m 228.23° 237.67° Concrete 0 ft / 0 m 0 ft / 0 m
35 150 ft / 46 m 7,018 ft / 2,139 m 339.31° 348.75° Asphalt 0 ft / 0 m 0 ft / 0 m

KSUT

Details ICAO KSUT
Name BRUNSWICK CO
Region United States
Timezone America/New_York (UTC-5.0)
Stats Elevation 25 ft / 8 m (AMSL)
Location 33.929261° -78.074993°
Runways 1
Magnetic Variation 9.275° W

METAR

KSUT 131325Z AUTO 33004KT 10SM CLR 00/M09 A3002 RMK AO2 T10011092

Decode

TAF

Not found

Destination Runways

ID Width Length Bearing (true) Bearing (mag) Surface Threshold Offset Overrun Length
05 100 ft / 30 m 4,004 ft / 1,220 m 40.89° 50.16° Asphalt 0 ft / 0 m 0 ft / 0 m
23 100 ft / 30 m 4,004 ft / 1,220 m 220.90° 230.17° Asphalt 0 ft / 0 m 0 ft / 0 m